AL2 weather

Public forecast

Using degrees Celsius for public forecast. Weather courtesy of forecast.io.

Closest aviation weather report (METAR) to Chrome Island Lightstation Helipad

Closest report is Comox Airport, 16.4 nm (30.3 km) NNW. Retrieved 2020/08/11 00:00 UTC (55 minutes ago):

CYQQ 110000Z 36008KT 20SM FEW040 BKN250 22/12 A3003 RMK CU1CI5 SLP171

Closest aviation forecast (TAF) to Chrome Island Lightstation Helipad

Closest forecast is Comox Airport, 16.4 nm (30.3 km) NNW. Retrieved 2020-08-11 00:42 UTC (13 minutes ago):

TAF CYQQ 102339Z 1100/1124 34010KT P6SM SKC BECMG 1105/1107 34012G22KT FM111800 36010KT P6SM SCT080 BKN200 BECMG 1122/1124 BKN080 RMK NXT FCST BY 110600Z